METAR Data
IDs: Format: Raw Decoded Include TAF

Data at: 0004 UTC 25 Apr 2019

METAR for:KSPW (Spencer Muni, IA, US)
Text:KSPW 242353Z AUTO 22009KT 10SM CLR 25/05 A2972 RMK AO2 SLP062 T02500050 10261 20206 56015
Temperature: 25.0°C ( 77°F)
Dewpoint: 5.0°C ( 41°F) [RH = 28%]
Pressure (altimeter):29.72 inches Hg (1006.5 mb) [Sea level pressure: 1006.2 mb]
Winds:from the SW (220 degrees) at 10 MPH (9 knots; 4.6 m/s)
Visibility:10 or more sm (16+ km)
Ceiling:at least 12,000 feet AGL
Clouds:sky clear below 12,000 feet AGL
QC Flag:automated observation with no human augmentation